Time;durP1;ratioP1;P1;durP2;ratioP2;P2;SDS_P1;SDS_P2;PMS_P1;PMS_P2;Temp;Humidity;BMP_temperature;BMP_pressure;BME280_temperature;BME280_humidity;BME280_pressure;Samples;Min_cycle;Max_cycle;Signal;HPM_P1;HPM_P2
2023/05/19 00:00:59;;;;;;;20.98;4.28;;;;;;;;;;6317482;22;20003;-94
2023/05/19 00:03:25;;;;;;;18.85;4.75;;;;;;;;;;6318805;22;20032;-93
2023/05/19 00:05:56;;;;;;;14.23;5.97;;;;;;;;;;6341450;22;20037;-95
2023/05/19 00:08:27;;;;;;;19.75;5.10;;;;;;;;;;6343711;22;20086;-94
2023/05/19 00:10:53;;;;;;;18.38;5.05;;;;;;;;;;6342441;22;20017;-96
2023/05/19 00:13:29;;;;;;;11.38;4.55;;;;;;;;;;6316416;22;20029;-95
2023/05/19 00:15:59;;;;;;;25.08;4.68;;;;;;;;;;6314433;22;20098;-93
2023/05/19 00:18:38;;;;;;;17.98;4.38;;;;;;;;;;6315756;22;20317;-94
2023/05/19 00:21:06;;;;;;;18.77;4.43;;;;;;;;;;6341004;22;20424;-93
2023/05/19 00:23:32;;;;;;;10.50;4.00;;;;;;;;;;6317063;22;20010;-94
2023/05/19 00:26:29;;;;;;;19.40;4.75;;;;;;;;;;6343203;22;20348;-94
2023/05/19 00:28:55;;;;;;;;;;;;;;;;;;6335540;22;20349;-95
2023/05/19 00:31:26;;;;;;;17.40;4.60;;;;;;;;;;6342220;22;19902;-94
2023/05/19 00:33:56;;;;;;;17.30;4.30;;;;;;;;;;6319778;22;20014;-93
2023/05/19 00:36:25;;;;;;;15.77;4.28;;;;;;;;;;6342364;22;20003;-93
2023/05/19 00:38:51;;;;;;;11.45;4.85;;;;;;;;;;6344320;22;20025;-93
2023/05/19 00:41:18;;;;;;;26.83;4.60;;;;;;;;;;6314456;22;20090;-94
2023/05/19 00:43:44;;;;;;;13.48;4.22;;;;;;;;;;6343135;22;20344;-94
2023/05/19 00:46:19;;;;;;;14.55;4.07;;;;;;;;;;6317896;22;20014;-95
2023/05/19 00:48:46;;;;;;;23.67;4.57;;;;;;;;;;6344217;22;20006;-94
2023/05/19 00:51:15;;;;;;;15.60;4.00;;;;;;;;;;6316624;22;20010;-95
2023/05/19 00:53:47;;;;;;;19.92;4.05;;;;;;;;;;6341107;22;20527;-93
2023/05/19 00:56:15;;;;;;;17.35;3.83;;;;;;;;;;6320051;22;20021;-95
2023/05/19 00:58:42;;;;;;;23.45;4.43;;;;;;;;;;6343248;22;20456;-96
2023/05/19 01:01:08;;;;;;;16.15;4.45;;;;;;;;;;6315194;22;20013;-94
2023/05/19 01:03:45;;;;;;;10.60;4.05;;;;;;;;;;6345180;22;20007;-96
2023/05/19 01:06:11;;;;;;;13.45;3.97;;;;;;;;;;6308893;22;20015;-94
2023/05/19 01:11:44;;;;;;;11.75;4.10;;;;;;;;;;6322232;22;20017;-95
2023/05/19 01:14:11;;;;;;;16.70;5.10;;;;;;;;;;6318697;22;20105;-94
2023/05/19 01:16:41;;;;;;;19.58;4.20;;;;;;;;;;6342850;22;19998;-96
2023/05/19 01:19:26;;;;;;;26.00;4.80;;;;;;;;;;6344161;22;20002;-95
2023/05/19 01:22:22;;;;;;;12.35;4.78;;;;;;;;;;6339966;22;20041;-95
2023/05/19 01:25:03;;;;;;;14.27;3.88;;;;;;;;;;6312195;22;20009;-96
2023/05/19 01:27:46;;;;;;;14.35;3.70;;;;;;;;;;6344084;22;20087;-95
2023/05/19 01:30:36;;;;;;;18.33;4.07;;;;;;;;;;6344635;22;20093;-96
2023/05/19 01:33:28;;;;;;;10.75;4.50;;;;;;;;;;6323631;22;20002;-95
2023/05/19 01:36:02;;;;;;;25.10;5.40;;;;;;;;;;6343300;22;20089;-96
2023/05/19 01:38:29;;;;;;;22.15;4.85;;;;;;;;;;6343026;22;20032;-95
2023/05/19 01:40:56;;;;;;;17.48;3.90;;;;;;;;;;6318136;22;20011;-93
2023/05/19 01:43:24;;;;;;;16.23;3.50;;;;;;;;;;6345089;22;20006;-94
2023/05/19 01:46:03;;;;;;;25.83;3.88;;;;;;;;;;6342984;22;20013;-95
2023/05/19 01:48:33;;;;;;;18.88;3.97;;;;;;;;;;6343414;22;20552;-94
2023/05/19 01:51:03;;;;;;;19.65;4.30;;;;;;;;;;6343211;22;20011;-94
2023/05/19 01:53:32;;;;;;;12.45;3.40;;;;;;;;;;6344398;22;20010;-96
2023/05/19 01:56:01;;;;;;;19.92;4.32;;;;;;;;;;6345671;22;20036;-94
2023/05/19 01:58:44;;;;;;;19.45;3.47;;;;;;;;;;6319025;22;20047;-94
2023/05/19 02:01:29;;;;;;;12.32;3.25;;;;;;;;;;6344927;22;20006;-94
2023/05/19 02:04:17;;;;;;;13.93;3.38;;;;;;;;;;6344662;22;20017;-94
2023/05/19 02:06:57;;;;;;;12.48;4.15;;;;;;;;;;6344921;22;20003;-94
2023/05/19 02:09:42;;;;;;;14.20;3.72;;;;;;;;;;6344123;22;20010;-94
2023/05/19 02:12:11;;;;;;;18.70;4.57;;;;;;;;;;6344651;22;20038;-95
2023/05/19 02:14:40;;;;;;;26.88;3.92;;;;;;;;;;6346307;22;20007;-94
2023/05/19 02:17:32;;;;;;;29.08;5.20;;;;;;;;;;6346525;22;20440;-93
2023/05/19 02:20:05;;;;;;;16.88;3.60;;;;;;;;;;6345343;22;20002;-94
2023/05/19 02:25:34;;;;;;;17.83;4.10;;;;;;;;;;6306379;22;20456;-95
2023/05/19 02:28:00;;;;;;;21.52;3.80;;;;;;;;;;6320774;22;20017;-93
2023/05/19 02:30:36;;;;;;;24.20;4.80;;;;;;;;;;6322697;22;20013;-95
2023/05/19 02:33:05;;;;;;;;;;;;;;;;;;6351429;22;20379;-94
2023/05/19 02:35:32;;;;;;;10.25;3.30;;;;;;;;;;6351229;22;19898;-94
2023/05/19 02:38:04;;;;;;;16.70;3.78;;;;;;;;;;6326034;22;20010;-94
2023/05/19 02:40:30;;;;;;;16.70;4.35;;;;;;;;;;6328406;22;20347;-93
2023/05/19 02:43:26;;;;;;;10.23;3.60;;;;;;;;;;6352051;22;20105;-92
2023/05/19 02:45:52;;;;;;;10.55;3.42;;;;;;;;;;6333738;22;20391;-92
2023/05/19 02:48:18;;;;;;;19.50;4.30;;;;;;;;;;6351967;22;20006;-92
2023/05/19 02:51:00;;;;;;;19.20;3.90;;;;;;;;;;6325776;22;20352;-90
2023/05/19 02:53:36;;;;;;;18.60;3.95;;;;;;;;;;6359993;22;20061;-94
2023/05/19 02:56:08;;;;;;;22.42;4.05;;;;;;;;;;6364776;22;20008;-94
2023/05/19 02:58:37;;;;;;;13.35;3.70;;;;;;;;;;6338758;22;20007;-94
2023/05/19 03:01:20;;;;;;;28.85;4.75;;;;;;;;;;6336383;22;20009;-93
2023/05/19 03:03:46;;;;;;;21.30;3.53;;;;;;;;;;6360883;22;20021;-94
2023/05/19 03:06:16;;;;;;;22.33;3.63;;;;;;;;;;6359735;22;19994;-93
2023/05/19 03:08:43;;;;;;;13.38;4.10;;;;;;;;;;6331596;22;20014;-94
2023/05/19 03:11:09;;;;;;;17.30;3.80;;;;;;;;;;6331735;22;20011;-94
2023/05/19 03:13:36;;;;;;;14.10;4.47;;;;;;;;;;6331969;22;20537;-94
2023/05/19 03:16:02;;;;;;;24.90;6.80;;;;;;;;;;6352023;22;20004;-93
2023/05/19 03:18:28;;;;;;;18.92;4.32;;;;;;;;;;6325602;22;20008;-93
2023/05/19 03:20:55;;;;;;;19.05;3.70;;;;;;;;;;6324762;22;20017;-94
2023/05/19 03:23:33;;;;;;;23.35;3.70;;;;;;;;;;6346468;22;20097;-94
2023/05/19 03:29:07;;;;;;;18.85;4.68;;;;;;;;;;6293657;22;20018;-95
2023/05/19 03:34:25;;;;;;;20.60;4.53;;;;;;;;;;6341735;22;20144;-93
2023/05/19 03:36:51;;;;;;;19.10;3.53;;;;;;;;;;6347020;22;20010;-93
2023/05/19 03:39:20;;;;;;;20.25;4.53;;;;;;;;;;6320447;22;20010;-94
2023/05/19 03:41:46;;;;;;;17.75;4.32;;;;;;;;;;6322134;22;20344;-93
2023/05/19 03:44:13;;;;;;;9.07;3.50;;;;;;;;;;6319279;22;19999;-94
2023/05/19 03:46:39;;;;;;;15.48;3.90;;;;;;;;;;6321492;22;20006;-92
2023/05/19 03:49:06;;;;;;;14.38;4.40;;;;;;;;;;6318830;22;20037;-92
2023/05/19 03:51:35;;;;;;;16.33;4.60;;;;;;;;;;6317238;22;20018;-92
2023/05/19 03:54:02;;;;;;;22.20;5.03;;;;;;;;;;6318793;22;20014;-94
2023/05/19 03:56:29;;;;;;;29.83;5.47;;;;;;;;;;6355433;22;20015;-95
2023/05/19 03:58:59;;;;;;;21.77;4.68;;;;;;;;;;6311886;22;20033;-94
2023/05/19 04:01:25;;;;;;;16.88;4.85;;;;;;;;;;6311845;22;20079;-92
2023/05/19 04:03:51;;;;;;;25.02;5.10;;;;;;;;;;6311488;22;20398;-94
2023/05/19 04:06:18;;;;;;;17.05;4.50;;;;;;;;;;6284638;22;20089;-92
2023/05/19 04:08:44;;;;;;;22.25;5.53;;;;;;;;;;6314642;22;20041;-95
2023/05/19 04:11:10;;;;;;;20.45;5.03;;;;;;;;;;6314785;22;20037;-93
2023/05/19 04:13:40;;;;;;;21.90;5.32;;;;;;;;;;6286778;22;20038;-93
2023/05/19 04:16:06;;;;;;;15.63;5.22;;;;;;;;;;6314335;22;20018;-93
2023/05/19 04:18:32;;;;;;;21.80;4.68;;;;;;;;;;6286132;22;20122;-93
2023/05/19 04:20:58;;;;;;;17.85;5.72;;;;;;;;;;6284835;22;20233;-93
2023/05/19 04:23:36;;;;;;;19.45;4.85;;;;;;;;;;6285121;22;20490;-95
2023/05/19 04:26:08;;;;;;;17.02;4.93;;;;;;;;;;6290097;22;20022;-94
2023/05/19 04:28:37;;;;;;;17.63;5.32;;;;;;;;;;6288877;22;20061;-94
2023/05/19 04:31:09;;;;;;;21.23;5.00;;;;;;;;;;6285821;22;20059;-94
2023/05/19 04:33:35;;;;;;;17.80;5.57;;;;;;;;;;6311485;22;20429;-95
2023/05/19 04:36:07;;;;;;;21.38;6.32;;;;;;;;;;6312313;22;19998;-94
2023/05/19 04:38:33;;;;;;;26.88;6.60;;;;;;;;;;6285264;22;20007;-93
2023/05/19 04:41:00;;;;;;;25.80;5.90;;;;;;;;;;6286017;22;20036;-93
2023/05/19 04:43:27;;;;;;;27.15;6.38;;;;;;;;;;6286345;22;20007;-93
2023/05/19 04:46:04;;;;;;;18.73;6.15;;;;;;;;;;6287786;22;20076;-93
2023/05/19 04:48:32;;;;;;;20.20;6.25;;;;;;;;;;6312019;22;20006;-93
2023/05/19 04:51:12;;;;;;;19.55;6.03;;;;;;;;;;6286494;22;20025;-93
2023/05/19 04:53:40;;;;;;;19.80;6.45;;;;;;;;;;6288752;22;20037;-93
2023/05/19 04:56:21;;;;;;;22.17;7.30;;;;;;;;;;6298550;22;20022;-92
2023/05/19 04:59:14;;;;;;;19.45;6.18;;;;;;;;;;6345925;22;19998;-94
2023/05/19 05:01:57;;;;;;;;;;;;;;;;;;;;;
2023/05/19 05:04:24;;;;;;;13.95;5.60;;;;;;;;;;6345864;22;20041;-94
2023/05/19 05:07:11;;;;;;;21.10;6.80;;;;;;;;;;6320232;22;20014;-92
2023/05/19 05:10:02;;;;;;;21.23;6.15;;;;;;;;;;6351755;22;20430;-93
2023/05/19 05:13:05;;;;;;;;;;;;;;;;;;;;;
2023/05/19 05:15:50;;;;;;;;;;;;;;;;;;;;;
2023/05/19 05:18:35;;;;;;;21.38;6.25;;;;;;;;;;6193272;23;20069;-93
2023/05/19 05:24:30;;;;;;;18.92;5.13;;;;;;;;;;6174964;23;20008;-94
2023/05/19 05:27:07;;;;;;;18.17;5.80;;;;;;;;;;6264076;22;20271;-93
2023/05/19 05:29:33;;;;;;;12.77;5.28;;;;;;;;;;6314651;22;20035;-93
2023/05/19 05:35:32;;;;;;;18.00;5.30;;;;;;;;;;6246879;23;20035;-93
2023/05/19 05:38:10;;;;;;;15.20;5.75;;;;;;;;;;6321159;22;20024;-93
2023/05/19 05:41:03;;;;;;;19.23;5.75;;;;;;;;;;6338693;22;20007;-92
2023/05/19 05:43:33;;;;;;;9.38;4.25;;;;;;;;;;6322530;22;20010;-93
2023/05/19 05:45:59;;;;;;;12.55;4.47;;;;;;;;;;6343661;22;20002;-93
2023/05/19 05:48:29;;;;;;;12.25;4.45;;;;;;;;;;6341531;22;20195;-92
2023/05/19 05:54:29;;;;;;;9.48;4.53;;;;;;;;;;6287969;22;20047;-92
2023/05/19 05:57:09;;;;;;;20.63;5.00;;;;;;;;;;6188818;22;20027;-93
2023/05/19 05:59:35;;;;;;;19.08;5.38;;;;;;;;;;6283834;22;20011;-92
2023/05/19 06:02:01;;;;;;;11.73;4.82;;;;;;;;;;6283983;22;20060;-91
2023/05/19 06:04:27;;;;;;;12.90;4.95;;;;;;;;;;6282779;22;20342;-93
2023/05/19 06:06:59;;;;;;;26.95;6.40;;;;;;;;;;6309304;22;20581;-93
2023/05/19 06:09:36;;;;;;;12.27;5.22;;;;;;;;;;6286551;22;20010;-93
2023/05/19 06:12:05;;;;;;;10.93;4.90;;;;;;;;;;6285975;22;20011;-93
2023/05/19 06:14:35;;;;;;;12.65;4.68;;;;;;;;;;6286777;22;20285;-92
2023/05/19 06:17:04;;;;;;;12.13;4.18;;;;;;;;;;6312773;22;20076;-93
2023/05/19 06:19:30;;;;;;;11.93;4.35;;;;;;;;;;6289121;22;20066;-93
2023/05/19 06:22:29;;;;;;;25.27;4.75;;;;;;;;;;6289857;22;20003;-93
2023/05/19 06:24:58;;;;;;;13.52;3.97;;;;;;;;;;6311309;22;20056;-93
2023/05/19 06:27:26;;;;;;;15.07;5.07;;;;;;;;;;6287795;22;20055;-93
2023/05/19 06:30:16;;;;;;;10.30;4.75;;;;;;;;;;6288605;22;20011;-94
2023/05/19 06:32:45;;;;;;;12.00;5.47;;;;;;;;;;6290805;22;20018;-93
2023/05/19 06:35:11;;;;;;;12.45;3.33;;;;;;;;;;6313186;22;20311;-93
2023/05/19 06:37:41;;;;;;;10.95;3.75;;;;;;;;;;6288724;22;20003;-92
2023/05/19 06:40:07;;;;;;;11.18;4.05;;;;;;;;;;6312379;22;20307;-92
2023/05/19 06:42:52;;;;;;;8.23;3.35;;;;;;;;;;6313927;22;20007;-92
2023/05/19 06:45:21;;;;;;;14.55;3.60;;;;;;;;;;6288458;22;20244;-92
2023/05/19 06:47:50;;;;;;;8.30;3.50;;;;;;;;;;6290592;22;20054;-92
2023/05/19 06:50:16;;;;;;;8.68;3.22;;;;;;;;;;6313575;22;20032;-91
2023/05/19 06:52:43;;;;;;;9.65;3.30;;;;;;;;;;6290048;22;20346;-91
2023/05/19 06:55:10;;;;;;;9.18;3.08;;;;;;;;;;6321634;22;20064;-92
2023/05/19 06:57:42;;;;;;;8.65;3.25;;;;;;;;;;6328658;22;20098;-91
2023/05/19 07:00:17;;;;;;;7.22;3.05;;;;;;;;;;6336041;22;20059;-92
2023/05/19 07:02:51;;;;;;;10.25;3.65;;;;;;;;;;6333419;22;20002;-91
2023/05/19 07:05:18;;;;;;;11.10;3.95;;;;;;;;;;6334828;22;20013;-93
2023/05/19 07:07:45;;;;;;;11.40;3.42;;;;;;;;;;6329123;22;20353;-92
2023/05/19 07:10:14;;;;;;;13.57;3.55;;;;;;;;;;6327129;22;20363;-92
2023/05/19 07:12:43;;;;;;;9.63;3.25;;;;;;;;;;6328047;22;20017;-92
2023/05/19 07:15:15;;;;;;;8.00;3.22;;;;;;;;;;6349644;22;20280;-92
2023/05/19 07:17:42;;;;;;;13.80;3.17;;;;;;;;;;6326906;22;20066;-92
2023/05/19 07:20:08;;;;;;;11.23;4.35;;;;;;;;;;6252280;22;20020;-93
2023/05/19 07:22:53;;;;;;;12.27;3.47;;;;;;;;;;6253808;22;20015;-93
2023/05/19 07:25:27;;;;;;;11.98;5.15;;;;;;;;;;6233577;22;20008;-92
2023/05/19 07:27:55;;;;;;;8.48;2.78;;;;;;;;;;6254804;22;20012;-92
2023/05/19 07:30:30;;;;;;;11.10;3.63;;;;;;;;;;6229577;22;20057;-92
2023/05/19 07:33:11;;;;;;;9.40;3.42;;;;;;;;;;6232492;22;20018;-92
2023/05/19 07:36:00;;;;;;;16.23;3.28;;;;;;;;;;6228615;22;20461;-92
2023/05/19 07:38:33;;;;;;;12.18;3.10;;;;;;;;;;6251155;22;20050;-93
2023/05/19 07:41:03;;;;;;;6.70;3.03;;;;;;;;;;6227891;22;20022;-92
2023/05/19 07:43:29;;;;;;;11.73;2.90;;;;;;;;;;6252119;22;20496;-92
2023/05/19 07:45:55;;;;;;;10.77;3.38;;;;;;;;;;6252550;22;20011;-92
2023/05/19 07:48:25;;;;;;;12.10;2.83;;;;;;;;;;6251170;22;20014;-91
2023/05/19 07:50:57;;;;;;;19.10;5.35;;;;;;;;;;6249793;22;20457;-92
2023/05/19 07:53:25;;;;;;;11.48;2.97;;;;;;;;;;6253914;22;20064;-92
2023/05/19 07:55:55;;;;;;;12.48;3.05;;;;;;;;;;6249611;22;20448;-92
2023/05/19 07:58:48;;;;;;;8.55;2.90;;;;;;;;;;6333277;22;20010;-91
2023/05/19 08:01:20;;;;;;;7.85;2.70;;;;;;;;;;6319067;22;20007;-93
2023/05/19 08:03:54;;;;;;;19.90;2.92;;;;;;;;;;6289400;22;20046;-92
2023/05/19 08:06:32;;;;;;;11.15;3.03;;;;;;;;;;6288580;22;20008;-92
2023/05/19 08:09:07;;;;;;;7.32;2.90;;;;;;;;;;6343163;22;20007;-93
2023/05/19 08:12:00;;;;;;;8.00;2.37;;;;;;;;;;6315121;22;20034;-93
2023/05/19 08:17:42;;;;;;;7.15;3.35;;;;;;;;;;6305490;22;20085;-93
2023/05/19 08:23:14;;;;;;;10.57;2.35;;;;;;;;;;6245301;23;20008;-92
2023/05/19 08:26:07;;;;;;;9.73;3.10;;;;;;;;;;6223188;23;20039;-93
2023/05/19 08:28:52;;;;;;;8.18;2.80;;;;;;;;;;6279578;22;20330;-92
2023/05/19 08:31:59;;;;;;;;;;;;;;;;;;;;;
2023/05/19 08:34:38;;;;;;;7.00;3.03;;;;;;;;;;6336190;22;20042;-92
2023/05/19 08:37:37;;;;;;;5.75;2.70;;;;;;;;;;6317356;22;20022;-93
2023/05/19 08:40:33;;;;;;;8.45;3.47;;;;;;;;;;6290547;22;20014;-92
2023/05/19 08:43:00;;;;;;;8.45;3.22;;;;;;;;;;6317697;22;20063;-93
2023/05/19 08:45:26;;;;;;;9.70;3.00;;;;;;;;;;6292235;22;20011;-91
2023/05/19 08:48:59;;;;;;;;;;;;;;;;;;;;;
2023/05/19 08:59:51;;;;;;;9.73;3.00;;;;;;;;;;6221493;22;20031;-90
2023/05/19 09:02:34;;;;;;;10.93;2.85;;;;;;;;;;6324097;22;20011;-93
2023/05/19 09:05:08;;;;;;;7.75;3.05;;;;;;;;;;6323565;22;20067;-92
2023/05/19 09:07:42;;;;;;;10.13;3.67;;;;;;;;;;6347823;22;20033;-91
2023/05/19 09:10:18;;;;;;;10.02;3.25;;;;;;;;;;6316416;22;20003;-93
2023/05/19 09:13:21;;;;;;;8.75;2.97;;;;;;;;;;6287214;22;20201;-91
2023/05/19 09:15:48;;;;;;;17.30;3.47;;;;;;;;;;6312343;22;20009;-90
2023/05/19 09:24:25;;;;;;;10.45;3.17;;;;;;;;;;6228458;22;20164;-91
2023/05/19 09:27:00;;;;;;;11.05;3.08;;;;;;;;;;6317944;22;20007;-93
2023/05/19 09:29:31;;;;;;;;;;;;;;;;;;6321915;22;20059;-93
2023/05/19 09:32:39;;;;;;;9.95;2.70;;;;;;;;;;6321104;22;19918;-92
2023/05/19 09:40:58;;;;;;;6.55;2.97;;;;;;;;;;6193722;23;20016;-92
2023/05/19 09:50:08;;;;;;;6.55;2.60;;;;;;;;;;6138365;23;20051;-93
2023/05/19 09:58:26;;;;;;;4.53;2.25;;;;;;;;;;6171811;23;20036;-92
2023/05/19 10:01:02;;;;;;;10.32;2.65;;;;;;;;;;6157655;22;20017;-92
2023/05/19 10:03:42;;;;;;;10.32;3.30;;;;;;;;;;6196394;23;20008;-92
2023/05/19 10:06:38;;;;;;;9.07;2.58;;;;;;;;;;6217550;22;20007;-92
2023/05/19 10:09:17;;;;;;;5.65;2.15;;;;;;;;;;6264616;22;20007;-92
2023/05/19 10:11:52;;;;;;;7.75;2.60;;;;;;;;;;6290763;22;20025;-92
2023/05/19 10:14:23;;;;;;;8.15;2.95;;;;;;;;;;6294022;22;20015;-93
2023/05/19 10:17:08;;;;;;;7.50;2.30;;;;;;;;;;6291825;22;20019;-92
2023/05/19 10:22:36;;;;;;;7.85;3.00;;;;;;;;;;6197897;23;20035;-92
2023/05/19 10:25:08;;;;;;;4.10;2.35;;;;;;;;;;6301136;22;20006;-92
2023/05/19 10:27:47;;;;;;;10.48;2.97;;;;;;;;;;6319013;22;20007;-93
2023/05/19 10:30:16;;;;;;;4.20;2.65;;;;;;;;;;6317728;22;20025;-92
2023/05/19 10:32:43;;;;;;;7.72;2.38;;;;;;;;;;6317388;22;20035;-92
2023/05/19 10:35:27;;;;;;;7.57;2.70;;;;;;;;;;6291724;22;20027;-92
2023/05/19 10:38:17;;;;;;;8.63;2.95;;;;;;;;;;6317685;22;20064;-92
2023/05/19 10:41:08;;;;;;;7.38;2.40;;;;;;;;;;6318401;22;20013;-93
2023/05/19 10:43:53;;;;;;;7.85;2.50;;;;;;;;;;6317603;22;20246;-92
2023/05/19 10:46:23;;;;;;;9.13;2.47;;;;;;;;;;6317886;22;20038;-92
2023/05/19 10:48:58;;;;;;;4.05;2.20;;;;;;;;;;6320293;22;20017;-92
2023/05/19 10:51:31;;;;;;;7.13;2.65;;;;;;;;;;6319882;22;20090;-92
2023/05/19 10:54:08;;;;;;;;;;;;;;;;;;;;;
2023/05/19 10:56:54;;;;;;;6.97;2.42;;;;;;;;;;6320025;22;20045;-92
2023/05/19 10:59:31;;;;;;;6.90;2.58;;;;;;;;;;6317610;22;20412;-93
2023/05/19 11:01:57;;;;;;;6.75;2.90;;;;;;;;;;6320828;22;20076;-92
2023/05/19 11:04:52;;;;;;;7.25;3.72;;;;;;;;;;6294261;22;20085;-92
2023/05/19 11:07:20;;;;;;;5.82;2.50;;;;;;;;;;6323929;22;20006;-93
2023/05/19 11:12:44;;;;;;;9.63;2.80;;;;;;;;;;6233068;23;20044;-92
2023/05/19 11:15:16;;;;;;;4.07;2.45;;;;;;;;;;6206554;23;20000;-91
2023/05/19 11:17:45;;;;;;;4.75;2.83;;;;;;;;;;6265925;22;19991;-92
2023/05/19 11:20:20;;;;;;;11.07;3.35;;;;;;;;;;6328273;22;20014;-92
2023/05/19 11:22:47;;;;;;;;;;;;;;;;;;6327144;22;20037;-93
2023/05/19 11:25:20;;;;;;;10.18;3.30;;;;;;;;;;6326146;22;20208;-92
2023/05/19 11:28:02;;;;;;;5.40;2.67;;;;;;;;;;6325270;22;20074;-91
2023/05/19 11:30:44;;;;;;;6.78;2.90;;;;;;;;;;6321813;22;20480;-91
2023/05/19 11:36:09;;;;;;;6.45;2.65;;;;;;;;;;6298133;22;20053;-94
2023/05/19 11:38:37;;;;;;;5.03;3.05;;;;;;;;;;6292398;22;20011;-92
2023/05/19 11:41:04;;;;;;;6.55;2.90;;;;;;;;;;6293708;22;20062;-92
2023/05/19 11:44:02;;;;;;;9.60;3.10;;;;;;;;;;6292393;22;20042;-92
2023/05/19 11:46:36;;;;;;;11.98;3.17;;;;;;;;;;6309255;22;20014;-94
2023/05/19 11:49:04;;;;;;;6.40;3.20;;;;;;;;;;6317336;22;20029;-93
2023/05/19 11:51:31;;;;;;;8.93;3.20;;;;;;;;;;6316320;22;20007;-93
2023/05/19 11:54:50;;;;;;;7.85;2.88;;;;;;;;;;6288890;22;20033;-93
2023/05/19 11:57:12;;;;;;;5.32;2.75;;;;;;;;;;6215477;22;20001;-93
2023/05/19 11:59:42;;;;;;;5.88;2.78;;;;;;;;;;6169583;23;20055;-93
2023/05/19 12:02:24;;;;;;;7.30;2.42;;;;;;;;;;6289808;22;20018;-94
2023/05/19 12:04:51;;;;;;;9.73;3.00;;;;;;;;;;6317156;22;20015;-94
2023/05/19 12:07:22;;;;;;;9.18;3.50;;;;;;;;;;6316181;22;20006;-93
2023/05/19 12:09:50;;;;;;;5.53;2.28;;;;;;;;;;6292635;22;20025;-93
2023/05/19 12:12:27;;;;;;;5.85;2.40;;;;;;;;;;6322262;22;20028;-94
2023/05/19 12:14:54;;;;;;;7.00;2.35;;;;;;;;;;6318458;22;20003;-93
2023/05/19 12:17:25;;;;;;;7.45;2.80;;;;;;;;;;6294128;22;20007;-92
2023/05/19 12:19:55;;;;;;;8.10;2.58;;;;;;;;;;6318334;22;20014;-93
2023/05/19 12:22:28;;;;;;;9.80;2.40;;;;;;;;;;6321731;22;20288;-93
2023/05/19 12:24:55;;;;;;;6.75;2.80;;;;;;;;;;6294796;22;20036;-93
2023/05/19 12:28:03;;;;;;;6.50;2.30;;;;;;;;;;6295004;22;20010;-94
2023/05/19 12:30:50;;;;;;;13.43;2.97;;;;;;;;;;6223414;23;20052;-92
2023/05/19 12:33:33;;;;;;;10.63;2.85;;;;;;;;;;6237395;22;20029;-94
2023/05/19 12:36:04;;;;;;;9.10;3.05;;;;;;;;;;6310080;22;20033;-93
2023/05/19 12:38:38;;;;;;;5.30;2.58;;;;;;;;;;6316434;22;20010;-92
2023/05/19 12:41:36;;;;;;;;;;;;;;;;;;;;;
2023/05/19 12:46:43;;;;;;;8.32;2.97;;;;;;;;;;6353988;22;20095;-92
2023/05/19 12:49:11;;;;;;;9.23;2.50;;;;;;;;;;6296805;22;20046;-92
2023/05/19 12:51:48;;;;;;;8.77;2.83;;;;;;;;;;6300243;22;20018;-93
2023/05/19 13:44:46;;;;;;;9.75;3.30;;;;;;;;;;6382911;22;20057;-94
2023/05/19 13:47:21;;;;;;;11.25;3.13;;;;;;;;;;6335240;22;20022;-93
2023/05/19 13:49:47;;;;;;;15.40;3.60;;;;;;;;;;6356594;22;20076;-93
2023/05/19 13:52:14;;;;;;;13.63;3.83;;;;;;;;;;6335300;22;20006;-94
2023/05/19 13:54:43;;;;;;;9.90;3.72;;;;;;;;;;6330174;22;20026;-94
2023/05/19 13:57:12;;;;;;;11.65;4.40;;;;;;;;;;6327638;22;20002;-92
2023/05/19 13:59:44;;;;;;;13.20;3.33;;;;;;;;;;6329073;22;20060;-92
2023/05/19 14:02:10;;;;;;;11.93;3.35;;;;;;;;;;6355954;22;20014;-94
2023/05/19 14:04:39;;;;;;;13.95;3.38;;;;;;;;;;6328556;22;20011;-92
2023/05/19 14:07:06;;;;;;;6.57;2.95;;;;;;;;;;6354744;22;20006;-93
2023/05/19 14:09:32;;;;;;;17.33;4.35;;;;;;;;;;6353722;22;20456;-93
2023/05/19 14:11:59;;;;;;;12.38;3.90;;;;;;;;;;6382455;22;20079;-93
2023/05/19 14:14:26;;;;;;;10.48;3.58;;;;;;;;;;6333341;22;20024;-92
2023/05/19 14:16:55;;;;;;;16.42;3.78;;;;;;;;;;6364476;22;20002;-94
2023/05/19 14:19:28;;;;;;;11.35;4.28;;;;;;;;;;6365198;22;20016;-92
2023/05/19 14:21:58;;;;;;;17.23;3.63;;;;;;;;;;6365285;22;19982;-95
2023/05/19 14:24:24;;;;;;;8.00;3.33;;;;;;;;;;6342734;22;20006;-95
2023/05/19 14:26:52;;;;;;;9.88;3.25;;;;;;;;;;6339902;22;20066;-93
2023/05/19 14:29:18;;;;;;;17.13;4.07;;;;;;;;;;6366346;22;20016;-95
2023/05/19 14:31:44;;;;;;;8.95;3.42;;;;;;;;;;6391223;22;19987;-94
2023/05/19 14:34:10;;;;;;;12.38;3.38;;;;;;;;;;6336686;22;20017;-93
2023/05/19 14:36:36;;;;;;;10.23;3.42;;;;;;;;;;6336463;22;20027;-93
2023/05/19 14:39:06;;;;;;;9.45;3.92;;;;;;;;;;6333285;22;20099;-94
2023/05/19 14:41:32;;;;;;;12.38;3.47;;;;;;;;;;6360183;22;20014;-93
2023/05/19 14:44:12;;;;;;;10.45;3.15;;;;;;;;;;6340240;22;20009;-93
2023/05/19 14:46:38;;;;;;;14.55;3.75;;;;;;;;;;6356091;22;20006;-92
2023/05/19 14:51:59;;;;;;;13.55;3.38;;;;;;;;;;6356322;22;20018;-96
2023/05/19 14:54:25;;;;;;;10.90;3.03;;;;;;;;;;6326448;22;20385;-90
2023/05/19 14:56:56;;;;;;;11.55;3.17;;;;;;;;;;6321654;22;20101;-87
2023/05/19 14:59:22;;;;;;;11.13;3.78;;;;;;;;;;6347491;22;20010;-89
2023/05/19 15:01:51;;;;;;;14.65;3.42;;;;;;;;;;6319629;22;20021;-89
2023/05/19 15:04:31;;;;;;;13.48;3.78;;;;;;;;;;6346482;22;20002;-88
2023/05/19 15:06:57;;;;;;;5.63;2.38;;;;;;;;;;6348136;22;20010;-89
2023/05/19 15:09:28;;;;;;;10.38;2.53;;;;;;;;;;6345288;22;20376;-87
2023/05/19 15:11:54;;;;;;;9.77;3.33;;;;;;;;;;6318426;22;20059;-88
2023/05/19 15:14:23;;;;;;;11.75;3.15;;;;;;;;;;6345173;22;20014;-89
2023/05/19 15:16:56;;;;;;;7.18;2.67;;;;;;;;;;6318938;22;20006;-90
2023/05/19 15:19:25;;;;;;;7.75;3.22;;;;;;;;;;6344964;22;20029;-89
2023/05/19 15:21:51;;;;;;;11.13;4.00;;;;;;;;;;6321725;22;20029;-89
2023/05/19 15:24:20;;;;;;;9.70;3.13;;;;;;;;;;6317418;22;20010;-89
2023/05/19 15:26:47;;;;;;;14.90;3.53;;;;;;;;;;6324104;22;20014;-88
2023/05/19 15:29:13;;;;;;;8.27;3.00;;;;;;;;;;6322048;22;20093;-89
2023/05/19 15:31:39;;;;;;;8.18;3.05;;;;;;;;;;6342806;22;20010;-89
2023/05/19 15:34:08;;;;;;;11.93;3.53;;;;;;;;;;6346247;22;20009;-88
2023/05/19 15:36:46;;;;;;;8.80;3.08;;;;;;;;;;6347484;22;20002;-90
2023/05/19 15:39:13;;;;;;;9.68;4.13;;;;;;;;;;6349235;22;20128;-88
2023/05/19 15:41:40;;;;;;;14.48;3.35;;;;;;;;;;6318904;22;20025;-88
2023/05/19 15:44:14;;;;;;;11.55;3.50;;;;;;;;;;6316497;22;20083;-86
2023/05/19 15:46:40;;;;;;;11.10;3.15;;;;;;;;;;6368818;22;20432;-88
2023/05/19 15:49:06;;;;;;;9.13;2.85;;;;;;;;;;6316231;22;20056;-86
2023/05/19 15:51:39;;;;;;;10.98;2.92;;;;;;;;;;6341460;22;20016;-86
2023/05/19 15:54:08;;;;;;;9.20;3.25;;;;;;;;;;6339810;22;20014;-87
2023/05/19 15:56:34;;;;;;;12.68;3.20;;;;;;;;;;6314627;22;20198;-89
2023/05/19 15:59:00;;;;;;;9.85;2.90;;;;;;;;;;6314965;22;20059;-88
2023/05/19 16:01:29;;;;;;;11.75;3.17;;;;;;;;;;6338351;22;20032;-87
2023/05/19 16:03:55;;;;;;;9.95;3.25;;;;;;;;;;6342026;22;20382;-86
2023/05/19 16:06:26;;;;;;;12.40;3.53;;;;;;;;;;6313830;22;20436;-87
2023/05/19 16:08:54;;;;;;;10.25;3.47;;;;;;;;;;6340367;22;20123;-87
2023/05/19 16:11:22;;;;;;;12.50;3.42;;;;;;;;;;6340992;22;20010;-87
2023/05/19 16:13:48;;;;;;;7.22;2.65;;;;;;;;;;6340471;22;19998;-88
2023/05/19 16:16:14;;;;;;;16.23;3.40;;;;;;;;;;6314150;22;20059;-87
2023/05/19 16:18:42;;;;;;;11.43;3.03;;;;;;;;;;6315998;22;20012;-87
2023/05/19 16:21:09;;;;;;;11.65;3.10;;;;;;;;;;6315024;22;20118;-88
2023/05/19 16:23:35;;;;;;;14.20;3.25;;;;;;;;;;6341705;22;20006;-88
2023/05/19 16:26:01;;;;;;;8.85;2.78;;;;;;;;;;6342151;22;20010;-88
2023/05/19 16:28:27;;;;;;;10.07;3.60;;;;;;;;;;6341793;22;20336;-88
2023/05/19 16:30:58;;;;;;;12.52;3.40;;;;;;;;;;6340115;22;20011;-88
2023/05/19 16:33:27;;;;;;;8.52;2.90;;;;;;;;;;6341922;22;20017;-88
2023/05/19 16:36:00;;;;;;;14.82;3.75;;;;;;;;;;6343449;22;20009;-90
2023/05/19 16:38:33;;;;;;;8.20;2.83;;;;;;;;;;6343318;22;20431;-91
2023/05/19 16:41:09;;;;;;;9.77;2.85;;;;;;;;;;6321060;22;20092;-91
2023/05/19 16:43:36;;;;;;;7.63;3.17;;;;;;;;;;6344972;22;20011;-90
2023/05/19 16:46:12;;;;;;;;;;;;;;;;;;;;;
2023/05/19 16:48:40;;;;;;;11.98;2.80;;;;;;;;;;6342870;22;20049;-89
2023/05/19 16:51:08;;;;;;;14.90;3.88;;;;;;;;;;6338801;22;20017;-89
2023/05/19 16:53:36;;;;;;;14.50;3.53;;;;;;;;;;6341560;22;20063;-90
2023/05/19 16:56:24;;;;;;;10.13;2.95;;;;;;;;;;6314878;22;20026;-90
2023/05/19 16:58:57;;;;;;;9.70;2.63;;;;;;;;;;6336662;22;20134;-91
2023/05/19 17:01:24;;;;;;;6.20;2.78;;;;;;;;;;6323629;22;20040;-92
2023/05/19 17:03:54;;;;;;;10.98;2.65;;;;;;;;;;6353742;22;20006;-92
2023/05/19 17:06:31;;;;;;;14.98;4.05;;;;;;;;;;6359512;22;20014;-96
2023/05/19 17:09:08;;;;;;;7.88;2.50;;;;;;;;;;6331222;22;20086;-96
2023/05/19 17:11:48;;;;;;;9.63;2.75;;;;;;;;;;6356927;22;19987;-96
2023/05/19 17:14:16;;;;;;;10.77;4.38;;;;;;;;;;6344086;22;20025;-96
2023/05/19 17:16:43;;;;;;;12.20;3.40;;;;;;;;;;6326113;22;20009;-96
2023/05/19 17:19:40;;;;;;;11.00;2.92;;;;;;;;;;6346446;22;20033;-96
2023/05/19 17:22:09;;;;;;;9.95;3.25;;;;;;;;;;6343088;22;20029;-96
2023/05/19 17:24:42;;;;;;;16.42;4.00;;;;;;;;;;6374698;22;20037;-96